SPJL/JUL METAR and TAF weather

Enter ICAO airport designator
Station Type Date Time Source
SPJL METAR 2020/09/30 17:00 UTC NOAA

SPJL 301700Z 25010KT 9999 BKN020 13/02 Q1035 RMK PP000


Station Type Date Time Source
SPJL Decoded METAR 2020/09/30 17:00 UTC NOAA

Juliaca, Peru (SPJL) 15-29S 070-09W 3827M
Sep 30, 2020 - 01:00 PM EDT / 2020.09.30 1700 UTC
Wind: from the WSW (250 degrees) at 12 MPH (10 KT):0
Visibility: greater than 7 mile(s):0
Sky conditions: mostly cloudy
Temperature: 55 F (13 C)
Dew Point: 35 F (2 C)
Relative Humidity: 47%
Pressure (altimeter): 30.56 in. Hg (1035 hPa)
ob: SPJL 301700Z 25010KT 9999 BKN020 13/02 Q1035 RMK PP000
cycle: 17

Station Type Date Time Source
SPJL TAF 2020/09/30 12:31 UTC NOAA

TAF SPJL 301320Z 3012/0112 24003KT 9999 SCT020 TX16/3019Z TN01/0110Z
FM301700 30007KT 9999 SCT025 SCT100
TEMPO 3018/3021 BKN020
FM010000 16005KT 9999 SCT020

Example: see airport list